Time;durP1;ratioP1;P1;durP2;ratioP2;P2;SDS_P1;SDS_P2;PMS_P1;PMS_P2;Temp;Humidity;BMP_temperature;BMP_pressure;BME280_temperature;BME280_humidity;BME280_pressure;Samples;Min_cycle;Max_cycle;Signal;HPM_P1;HPM_P2
2021/09/12 00:05:02;;;;;;;26.90;16.00;;;;;;;17.14;60.13;99067.38;234155;1198;138655;-62
2021/09/12 00:10:08;;;;;;;27.90;16.30;;;;;;;17.17;59.93;99071.41;234290;1198;140155;-63
2021/09/12 00:15:12;;;;;;;25.00;16.70;;;;;;;17.19;60.02;99064.60;234168;1198;139085;-62
2021/09/12 00:20:26;;;;;;;29.70;17.30;;;;;;;17.26;60.17;99060.91;233969;1198;138858;-60
2021/09/12 00:25:29;;;;;;;28.10;16.50;;;;;;;17.33;60.13;99062.48;234291;1198;138555;-63
2021/09/12 00:30:32;;;;;;;30.50;16.90;;;;;;;17.34;59.93;99064.19;234326;1198;139273;-61
2021/09/12 00:35:35;;;;;;;25.60;16.20;;;;;;;17.30;59.87;99065.10;234267;1198;139879;-64
2021/09/12 00:40:38;;;;;;;30.90;17.60;;;;;;;17.26;60.00;99066.52;234185;1198;138906;-61
2021/09/12 00:45:41;;;;;;;28.00;17.40;;;;;;;17.22;60.01;99061.27;234152;1198;139979;-59
2021/09/12 00:50:44;;;;;;;30.60;18.30;;;;;;;17.15;59.82;99059.54;234379;1195;138919;-62
2021/09/12 00:55:49;;;;;;;28.20;16.90;;;;;;;17.14;60.04;99063.42;234297;1198;138436;-64
2021/09/12 01:00:52;;;;;;;26.90;16.30;;;;;;;17.15;60.01;99059.95;234156;1198;138955;-60
2021/09/12 01:05:56;;;;;;;25.90;16.80;;;;;;;17.15;59.87;99061.79;233833;1198;139198;-58
2021/09/12 01:10:59;;;;;;;26.60;16.80;;;;;;;17.11;60.08;99059.47;234249;1198;138525;-62
2021/09/12 01:16:15;;;;;;;27.60;16.70;;;;;;;17.07;60.02;99062.25;233741;1198;138527;-62
2021/09/12 01:21:23;;;;;;;28.10;17.30;;;;;;;17.06;60.04;99060.21;234260;1198;138540;-61
2021/09/12 01:26:27;;;;;;;28.60;17.60;;;;;;;16.98;60.25;99058.55;234227;1198;138389;-60
2021/09/12 01:31:32;;;;;;;27.00;16.30;;;;;;;16.91;60.22;99057.21;234375;1198;138801;-61
2021/09/12 01:36:35;;;;;;;28.90;17.60;;;;;;;16.86;60.34;99059.45;234262;1198;139778;-64
2021/09/12 01:41:39;;;;;;;32.30;17.30;;;;;;;16.83;60.25;99062.45;234229;1198;138579;-66
2021/09/12 01:46:48;;;;;;;31.40;15.90;;;;;;;16.75;60.29;99060.73;234190;1198;139513;-63
2021/09/12 01:51:52;;;;;;;24.70;16.20;;;;;;;16.69;60.65;99058.58;234271;1198;139106;-62
2021/09/12 01:56:55;;;;;;;30.00;16.90;;;;;;;16.66;60.73;99056.73;234445;1198;139626;-63
2021/09/12 02:01:58;;;;;;;27.30;17.10;;;;;;;16.64;60.88;99060.09;234204;1195;139026;-66
2021/09/12 02:07:01;;;;;;;28.30;17.10;;;;;;;16.65;61.16;99063.61;234235;1198;138822;-63
2021/09/12 02:12:04;;;;;;;28.70;16.60;;;;;;;16.64;61.12;99059.71;234317;1198;139006;-63
2021/09/12 02:17:07;;;;;;;24.30;16.30;;;;;;;16.61;61.09;99061.48;234123;1198;139811;-62
2021/09/12 02:22:10;;;;;;;28.00;16.90;;;;;;;16.56;61.18;99061.20;234175;1198;138520;-63
2021/09/12 02:27:13;;;;;;;25.70;16.80;;;;;;;16.51;61.28;99063.34;234257;1198;139216;-62
2021/09/12 02:32:17;;;;;;;28.60;15.60;;;;;;;16.44;61.34;99062.92;234117;1196;139757;-62
2021/09/12 02:37:20;;;;;;;24.40;15.50;;;;;;;16.39;61.43;99055.96;234199;1198;139281;-66
2021/09/12 02:42:23;;;;;;;24.80;16.10;;;;;;;16.41;61.48;99057.09;234162;1198;139731;-64
2021/09/12 02:47:26;;;;;;;30.50;16.90;;;;;;;16.43;61.52;99061.05;233885;1198;138962;-63
2021/09/12 02:52:29;;;;;;;28.60;16.30;;;;;;;16.43;61.68;99065.90;234360;1198;139363;-62
2021/09/12 02:57:32;;;;;;;29.60;17.20;;;;;;;16.37;61.80;99060.78;234421;1198;139497;-65
2021/09/12 03:02:35;;;;;;;26.00;16.90;;;;;;;16.31;61.81;99068.44;234168;1198;138191;-64
2021/09/12 03:07:38;;;;;;;26.40;17.00;;;;;;;16.29;61.97;99070.26;234092;1198;138662;-61
2021/09/12 03:12:41;;;;;;;25.00;15.40;;;;;;;16.26;61.88;99072.98;234267;1198;139468;-62
2021/09/12 03:17:44;;;;;;;27.90;15.50;;;;;;;16.27;61.95;99077.76;234251;1198;139591;-60
2021/09/12 03:22:47;;;;;;;26.80;16.00;;;;;;;16.32;62.03;99077.33;234155;1198;140144;-61
2021/09/12 03:27:53;;;;;;;28.10;16.20;;;;;;;16.35;61.90;99082.48;234325;1198;139240;-65
2021/09/12 03:32:56;;;;;;;26.60;16.70;;;;;;;16.33;61.84;99081.92;234290;1198;140291;-61
2021/09/12 03:37:59;;;;;;;25.00;15.90;;;;;;;16.33;61.75;99080.66;234252;1198;138626;-62
2021/09/12 03:43:03;;;;;;;27.60;16.40;;;;;;;16.28;61.90;99077.70;234171;1198;139320;-63
2021/09/12 03:48:06;;;;;;;25.70;16.60;;;;;;;16.22;61.89;99079.23;234166;1198;139337;-62
2021/09/12 03:53:09;;;;;;;33.90;17.30;;;;;;;16.19;62.03;99080.64;234314;1198;139852;-62
2021/09/12 03:58:12;;;;;;;28.80;16.40;;;;;;;16.19;62.16;99085.42;234231;1198;139678;-62
2021/09/12 04:03:15;;;;;;;30.60;17.10;;;;;;;16.21;62.09;99086.17;234313;1198;139562;-62
2021/09/12 04:08:19;;;;;;;28.90;17.60;;;;;;;16.23;62.00;99085.48;234139;1198;139591;-61
2021/09/12 04:13:22;;;;;;;30.70;18.00;;;;;;;16.23;62.10;99082.42;234367;1198;138400;-63
2021/09/12 04:18:25;;;;;;;32.10;18.40;;;;;;;16.22;62.13;99082.85;234245;1198;139250;-59
2021/09/12 04:23:28;;;;;;;32.10;18.20;;;;;;;16.17;62.10;99089.36;234169;1198;138774;-60
2021/09/12 04:28:31;;;;;;;29.00;17.90;;;;;;;16.11;62.08;99083.06;234174;1198;139250;-60
2021/09/12 04:33:34;;;;;;;34.80;18.30;;;;;;;16.07;62.23;99086.80;234492;1198;138669;-63
2021/09/12 04:38:37;;;;;;;27.80;17.80;;;;;;;16.04;62.32;99086.38;234376;1198;138605;-63
2021/09/12 04:43:40;;;;;;;27.00;16.60;;;;;;;16.01;62.34;99089.42;234230;1198;139044;-63
2021/09/12 04:48:43;;;;;;;27.30;16.70;;;;;;;16.02;62.39;99091.50;234341;1198;139401;-62
2021/09/12 04:53:57;;;;;;;29.60;17.00;;;;;;;16.06;62.71;99088.70;234244;1198;139686;-64
2021/09/12 04:59:00;;;;;;;28.80;17.80;;;;;;;16.08;62.88;99091.70;234265;1198;138930;-63
2021/09/12 05:04:03;;;;;;;28.50;17.30;;;;;;;16.11;62.74;99087.77;234388;1195;138807;-64
2021/09/12 05:09:06;;;;;;;30.20;18.00;;;;;;;16.12;62.75;99088.89;234272;1198;140226;-64
2021/09/12 05:14:09;;;;;;;30.80;18.40;;;;;;;16.15;62.80;99088.69;234282;1198;139534;-63
2021/09/12 05:19:12;;;;;;;29.70;17.70;;;;;;;16.17;63.08;99087.59;234116;1198;138669;-61
2021/09/12 05:24:15;;;;;;;28.80;16.70;;;;;;;16.19;62.94;99091.15;234241;1198;140599;-62
2021/09/12 05:29:18;;;;;;;31.70;16.60;;;;;;;16.22;63.06;99090.59;234233;1198;139260;-64
2021/09/12 05:34:21;;;;;;;26.70;16.60;;;;;;;16.29;63.14;99092.81;234271;1198;139781;-59
2021/09/12 05:39:24;;;;;;;26.40;17.00;;;;;;;16.40;63.27;99103.33;234435;1198;139001;-62
2021/09/12 05:44:28;;;;;;;26.90;17.20;;;;;;;16.48;63.13;99098.72;234168;1198;138683;-63
2021/09/12 05:49:31;;;;;;;25.50;16.30;;;;;;;16.53;63.10;99099.16;234095;1199;141716;-62
2021/09/12 05:54:34;;;;;;;27.60;17.20;;;;;;;16.57;63.09;99100.65;234213;1198;139127;-62
2021/09/12 05:59:37;;;;;;;26.50;18.10;;;;;;;16.58;62.97;99100.40;234252;1198;138960;-64
2021/09/12 06:04:40;;;;;;;22.90;15.30;;;;;;;16.59;62.86;99098.70;234168;1198;138984;-62
2021/09/12 06:09:43;;;;;;;25.30;16.20;;;;;;;16.62;62.97;99088.25;234125;1198;139188;-61
2021/09/12 06:14:46;;;;;;;26.10;16.20;;;;;;;16.70;63.03;99092.84;234231;1195;139799;-60
2021/09/12 06:19:49;;;;;;;24.90;15.90;;;;;;;16.79;63.12;99094.30;234020;1198;138698;-62
2021/09/12 06:24:52;;;;;;;25.20;16.30;;;;;;;16.94;63.37;99098.22;234196;1198;138516;-64
2021/09/12 06:29:57;;;;;;;;;;;;;;;17.05;63.45;99104.77;234169;1198;141180;-62
2021/09/12 06:35:03;;;;;;;25.80;16.90;;;;;;;17.15;63.04;99106.92;234142;1198;125103;-61
2021/09/12 06:40:06;;;;;;;;;;;;;;;17.25;62.95;99106.96;234322;1198;150696;-63
2021/09/12 06:45:10;;;;;;;26.50;15.80;;;;;;;17.33;62.97;99110.77;234244;1197;124915;-59
2021/09/12 06:50:14;;;;;;;25.80;14.50;;;;;;;17.41;63.17;99107.87;234173;1198;138905;-62
2021/09/12 06:55:19;;;;;;;23.90;14.60;;;;;;;17.52;63.00;99103.27;234196;1195;139737;-60
2021/09/12 07:00:22;;;;;;;37.70;28.50;;;;;;;17.67;63.02;99104.99;234209;1198;139345;-61
2021/09/12 07:05:29;;;;;;;31.60;15.90;;;;;;;17.89;63.12;99097.43;234224;1198;139320;-63
2021/09/12 07:10:32;;;;;;;26.30;16.30;;;;;;;18.11;63.19;99101.70;234133;1198;139286;-62
2021/09/12 07:15:35;;;;;;;104.10;82.30;;;;;;;18.30;62.90;99103.20;234154;1198;138972;-64
2021/09/12 07:20:39;;;;;;;26.60;16.80;;;;;;;18.47;62.81;99105.37;234111;1197;138889;-60
2021/09/12 07:25:42;;;;;;;29.40;21.70;;;;;;;18.60;62.46;99103.77;234168;1198;139591;-62
2021/09/12 07:30:48;;;;;;;18.00;13.00;;;;;;;18.75;62.67;99110.29;234146;1198;139451;-63
2021/09/12 07:35:51;;;;;;;25.00;13.90;;;;;;;18.87;62.41;99115.97;234112;1198;142835;-63
2021/09/12 07:40:54;;;;;;;19.30;14.10;;;;;;;19.01;62.46;99114.80;234232;1197;139476;-63
2021/09/12 07:45:57;;;;;;;18.90;13.10;;;;;;;19.16;62.19;99117.05;234306;1198;139254;-62
2021/09/12 07:51:02;;;;;;;36.60;27.50;;;;;;;19.25;62.26;99123.27;234318;1198;138859;-64
2021/09/12 07:56:05;;;;;;;21.60;15.60;;;;;;;19.35;61.98;99123.59;234209;1198;138643;-61
2021/09/12 08:01:08;;;;;;;47.20;33.40;;;;;;;19.44;61.92;99121.32;234187;1198;138880;-63
2021/09/12 08:06:11;;;;;;;22.00;14.80;;;;;;;19.51;61.97;99121.48;234189;1198;139096;-61
2021/09/12 08:11:14;;;;;;;15.50;11.90;;;;;;;19.56;61.82;99120.05;234216;1198;138901;-63
2021/09/12 08:16:17;;;;;;;20.40;13.30;;;;;;;19.69;61.90;99123.36;234118;1198;139960;-64
2021/09/12 08:21:21;;;;;;;18.50;13.00;;;;;;;19.84;61.92;99119.00;234377;1198;139182;-60
2021/09/12 08:26:24;;;;;;;21.20;14.60;;;;;;;19.99;61.89;99118.60;234212;1198;138595;-60
2021/09/12 08:31:27;;;;;;;20.30;14.30;;;;;;;20.11;61.68;99118.80;234194;1198;138967;-60
2021/09/12 08:36:31;;;;;;;39.70;27.80;;;;;;;20.20;61.62;99120.20;234259;1198;138866;-61
2021/09/12 08:41:35;;;;;;;18.70;14.50;;;;;;;20.30;61.49;99117.65;234250;1198;139120;-62
2021/09/12 08:46:38;;;;;;;22.60;15.10;;;;;;;20.37;61.35;99121.44;234162;1197;138468;-60
2021/09/12 08:51:41;;;;;;;17.10;12.10;;;;;;;20.42;61.42;99117.28;234281;1197;140175;-63
2021/09/12 08:56:44;;;;;;;20.60;14.80;;;;;;;20.55;61.42;99110.23;234209;1197;140543;-60
2021/09/12 09:01:47;;;;;;;22.20;15.00;;;;;;;20.67;61.35;99109.98;234236;1198;138824;-61
2021/09/12 09:06:58;;;;;;;20.30;14.70;;;;;;;20.83;61.27;99110.43;234094;1198;138831;-62
2021/09/12 09:12:38;;;;;;;204.10;143.50;;;;;;;20.93;61.04;99107.94;234117;1199;138809;-62
2021/09/12 09:17:57;;;;;;;31.20;18.70;;;;;;;21.06;61.02;99106.27;234093;1198;139277;-62
2021/09/12 09:23:06;;;;;;;18.30;12.60;;;;;;;21.16;60.90;99102.48;234180;1197;139366;-64
2021/09/12 09:28:11;;;;;;;15.50;12.10;;;;;;;21.28;60.86;99101.05;233985;1199;139594;-63
2021/09/12 09:33:22;;;;;;;16.70;11.60;;;;;;;21.38;60.61;99102.20;233985;1198;139635;-63
2021/09/12 09:38:29;;;;;;;15.60;11.30;;;;;;;21.42;60.34;99101.40;234262;1197;138501;-62
2021/09/12 09:43:52;;;;;;;19.90;14.90;;;;;;;21.45;60.19;99100.14;234246;1198;139036;-61
2021/09/12 09:48:58;;;;;;;18.50;12.60;;;;;;;21.54;60.13;99094.90;234258;1198;138890;-61
2021/09/12 09:54:03;;;;;;;15.70;11.20;;;;;;;21.66;60.25;99086.36;234224;1198;138998;-61
2021/09/12 09:59:06;;;;;;;19.50;12.60;;;;;;;21.80;60.24;99088.85;234304;1198;139406;-63
2021/09/12 10:04:12;;;;;;;44.20;30.00;;;;;;;21.90;60.05;99084.42;234435;1198;140357;-63
2021/09/12 10:09:17;;;;;;;18.00;11.80;;;;;;;22.01;59.92;99080.92;234280;1198;138808;-63
2021/09/12 10:14:34;;;;;;;19.70;11.50;;;;;;;22.15;59.87;99073.13;234289;1198;139165;-63
2021/09/12 10:19:39;;;;;;;12.50;9.70;;;;;;;22.28;59.66;99070.58;234322;1197;138641;-64
2021/09/12 10:25:00;;;;;;;17.40;13.70;;;;;;;22.41;59.49;99061.88;234332;1198;138261;-64
2021/09/12 10:30:18;;;;;;;12.80;10.70;;;;;;;22.60;59.43;99059.80;234329;1198;139049;-63
2021/09/12 10:35:24;;;;;;;13.30;9.00;;;;;;;22.80;59.08;99060.21;234247;1198;140095;-63
2021/09/12 10:40:49;;;;;;;14.90;9.60;;;;;;;22.97;58.85;99053.72;234292;1194;139197;-64
2021/09/12 10:46:01;;;;;;;12.50;9.20;;;;;;;23.06;58.59;99047.17;234366;1198;138319;-67
2021/09/12 10:51:10;;;;;;;150.30;107.00;;;;;;;23.17;58.30;99047.65;234026;1197;140192;-63
2021/09/12 10:56:19;;;;;;;16.40;12.20;;;;;;;23.24;57.97;99042.77;233919;1198;139333;-63
2021/09/12 11:01:45;;;;;;;12.70;8.50;;;;;;;23.33;57.79;99039.40;234272;1197;138815;-67
2021/09/12 11:07:01;;;;;;;15.10;8.40;;;;;;;23.44;57.42;99034.50;234239;1198;138856;-66
2021/09/12 11:12:05;;;;;;;11.40;7.90;;;;;;;23.54;57.20;99033.93;234080;1197;138460;-65
2021/09/12 11:17:12;;;;;;;80.80;59.60;;;;;;;23.58;57.03;99026.88;233939;1198;139133;-63
2021/09/12 11:22:15;;;;;;;10.40;8.50;;;;;;;23.64;56.97;99026.98;233816;1197;138563;-63
2021/09/12 11:27:18;;;;;;;10.10;7.70;;;;;;;23.68;56.61;99021.84;233926;1198;139751;-67
2021/09/12 11:32:22;;;;;;;10.50;8.00;;;;;;;23.74;56.64;99016.42;234042;1197;138784;-63
2021/09/12 11:37:26;;;;;;;9.40;6.70;;;;;;;23.82;56.48;99006.20;234028;1198;138659;-62
2021/09/12 11:42:29;;;;;;;10.30;6.70;;;;;;;23.90;56.22;99003.99;233947;1198;139339;-61
2021/09/12 11:47:36;;;;;;;11.80;7.10;;;;;;;23.98;55.83;98993.39;234101;1198;139345;-62
2021/09/12 11:52:41;;;;;;;83.80;59.80;;;;;;;24.11;55.88;98996.02;234094;1198;139857;-64
2021/09/12 11:58:04;;;;;;;16.50;12.20;;;;;;;24.32;56.07;98990.54;234395;1198;138770;-61
2021/09/12 12:03:09;;;;;;;16.10;10.50;;;;;;;24.34;55.80;98986.42;234146;1198;139425;-62
2021/09/12 12:08:17;;;;;;;11.60;9.50;;;;;;;24.23;55.40;98979.60;233572;1198;138478;-66
2021/09/12 12:13:30;;;;;;;15.00;9.50;;;;;;;24.22;55.68;98971.84;234193;1198;138531;-61
2021/09/12 12:18:33;;;;;;;11.50;8.50;;;;;;;24.35;55.40;98968.58;234232;1198;138533;-61
2021/09/12 12:23:37;;;;;;;139.10;122.90;;;;;;;24.51;55.46;98961.69;234289;1198;139611;-63
2021/09/12 12:28:41;;;;;;;19.00;17.00;;;;;;;24.68;55.18;98960.52;234308;1198;140390;-62
2021/09/12 12:33:46;;;;;;;9.20;7.10;;;;;;;24.63;54.55;98958.14;234387;1198;139985;-66
2021/09/12 12:38:50;;;;;;;10.00;6.60;;;;;;;24.56;54.30;98954.77;234230;1198;138390;-61
2021/09/12 12:43:53;;;;;;;8.50;6.20;;;;;;;24.70;54.58;98953.06;233732;1198;139124;-62
2021/09/12 12:49:03;;;;;;;10.10;8.10;;;;;;;24.88;54.47;98947.69;233942;1197;138971;-61
2021/09/12 12:54:20;;;;;;;6.10;5.20;;;;;;;25.11;53.87;98942.02;233552;1198;139755;-63
2021/09/12 12:59:23;;;;;;;45.10;40.10;;;;;;;25.28;53.37;98941.88;233804;1198;138796;-62
2021/09/12 13:04:26;;;;;;;10.20;7.20;;;;;;;25.43;52.88;98935.84;234337;1198;138767;-63
2021/09/12 13:09:31;;;;;;;10.20;7.80;;;;;;;25.57;52.64;98930.76;234242;1198;138625;-62
2021/09/12 13:14:35;;;;;;;;;;;;;;;25.76;52.05;98931.88;234141;1196;139093;-64
2021/09/12 13:19:38;;;;;;;4.40;3.50;;;;;;;25.90;51.34;98933.91;234327;1198;124882;-64
2021/09/12 13:24:41;;;;;;;3.50;3.10;;;;;;;26.08;50.65;98934.44;234157;1198;139069;-61
2021/09/12 13:29:44;;;;;;;3.40;3.00;;;;;;;26.23;49.99;98934.13;234238;1198;138492;-61
2021/09/12 13:34:47;;;;;;;6.30;3.60;;;;;;;26.37;49.31;98932.15;234082;1198;138999;-59
2021/09/12 13:39:50;;;;;;;3.40;2.90;;;;;;;26.52;48.84;98930.45;234147;1198;139011;-62
2021/09/12 13:44:55;;;;;;;290.10;232.10;;;;;;;26.67;48.75;98925.71;233992;1198;138766;-62
2021/09/12 13:49:58;;;;;;;;;;;;;;;26.81;48.34;98919.11;234093;1198;139395;-61
2021/09/12 13:55:02;;;;;;;12.20;9.50;;;;;;;26.83;48.10;98913.58;234352;1198;124972;-62
2021/09/12 14:00:06;;;;;;;5.70;4.70;;;;;;;26.71;47.75;98919.83;233907;1198;138958;-61
2021/09/12 14:05:15;;;;;;;6.80;4.00;;;;;;;26.48;47.73;98918.79;233760;1198;138629;-63
2021/09/12 14:10:18;;;;;;;7.10;4.40;;;;;;;26.24;47.86;98917.70;234171;1198;138641;-63
2021/09/12 14:15:22;;;;;;;6.10;4.00;;;;;;;26.01;47.96;98909.45;234199;1198;138765;-63
2021/09/12 14:20:25;;;;;;;6.50;4.10;;;;;;;25.80;48.03;98910.06;234052;1198;139414;-65
2021/09/12 14:25:28;;;;;;;6.60;4.40;;;;;;;25.61;48.25;98909.33;233730;1198;138698;-62
2021/09/12 14:30:31;;;;;;;5.40;4.80;;;;;;;25.45;48.35;98909.05;234124;1198;139150;-62
2021/09/12 14:35:35;;;;;;;4.60;4.10;;;;;;;25.30;48.55;98903.72;234220;1198;138617;-63
2021/09/12 14:40:38;;;;;;;9.00;5.80;;;;;;;25.16;48.62;98905.23;234148;1198;138394;-62
2021/09/12 14:45:41;;;;;;;7.00;5.20;;;;;;;25.02;48.82;98907.85;234371;1198;139090;-62
2021/09/12 14:50:44;;;;;;;9.20;6.30;;;;;;;24.86;49.32;98910.41;234087;1198;139038;-63
2021/09/12 14:55:48;;;;;;;66.30;49.90;;;;;;;24.75;49.82;98917.61;234236;1198;138059;-62
2021/09/12 15:00:51;;;;;;;21.00;17.10;;;;;;;24.62;49.95;98917.77;234237;1198;141801;-62
2021/09/12 15:05:54;;;;;;;21.50;16.50;;;;;;;24.48;50.02;98917.08;234249;1198;138843;-60
2021/09/12 15:10:58;;;;;;;53.40;40.70;;;;;;;24.28;50.25;98919.71;234314;1198;139709;-62
2021/09/12 15:16:01;;;;;;;48.00;36.10;;;;;;;24.20;50.65;98913.02;234234;1198;140158;-63
2021/09/12 15:21:04;;;;;;;15.90;12.20;;;;;;;24.12;50.75;98911.48;234239;1198;139236;-62
2021/09/12 15:26:09;;;;;;;9.70;8.40;;;;;;;23.97;50.93;98908.69;234254;1198;139017;-62
2021/09/12 15:31:12;;;;;;;10.10;7.10;;;;;;;23.81;51.03;98916.61;234001;1198;138828;-63
2021/09/12 15:36:15;;;;;;;10.00;6.70;;;;;;;23.71;51.28;98918.16;233862;1198;138799;-61
2021/09/12 15:41:18;;;;;;;8.80;6.30;;;;;;;23.59;51.43;98917.09;234191;1198;138732;-62
2021/09/12 15:46:21;;;;;;;10.20;7.20;;;;;;;23.49;51.84;98915.89;234247;1198;139057;-61
2021/09/12 15:51:28;;;;;;;7.80;6.30;;;;;;;23.41;52.08;98914.99;233812;1198;138565;-63
2021/09/12 15:56:31;;;;;;;8.80;6.60;;;;;;;23.35;52.35;98914.18;234078;1198;138499;-61
2021/09/12 16:01:35;;;;;;;7.50;6.60;;;;;;;23.26;52.53;98912.98;234255;1198;138368;-63
2021/09/12 16:06:39;;;;;;;196.20;150.80;;;;;;;23.19;52.88;98912.05;234151;1198;138301;-62
2021/09/12 16:11:42;;;;;;;40.00;31.90;;;;;;;23.15;53.11;98914.20;234099;1199;140754;-62
2021/09/12 16:16:45;;;;;;;28.10;17.50;;;;;;;23.10;53.32;98916.23;234004;1198;139151;-64
2021/09/12 16:21:48;;;;;;;20.60;13.30;;;;;;;23.03;53.46;98920.94;233924;1198;141138;-62
2021/09/12 16:26:51;;;;;;;11.50;8.50;;;;;;;22.92;53.50;98921.63;234088;1197;139073;-61
2021/09/12 16:31:54;;;;;;;12.30;7.20;;;;;;;22.77;53.85;98925.10;234140;1198;138543;-64
2021/09/12 16:36:59;;;;;;;9.50;6.40;;;;;;;22.66;54.16;98922.56;234167;1198;139998;-62
2021/09/12 16:42:02;;;;;;;7.30;5.90;;;;;;;22.56;54.53;98928.79;234288;1198;138247;-62
2021/09/12 16:47:10;;;;;;;7.20;5.60;;;;;;;22.47;54.85;98928.17;234254;1198;138467;-61
2021/09/12 16:52:14;;;;;;;8.90;5.70;;;;;;;22.40;55.16;98921.75;234345;1198;138249;-63
2021/09/12 16:57:17;;;;;;;9.60;5.00;;;;;;;22.34;55.62;98921.70;234139;1198;140188;-62
2021/09/12 17:02:20;;;;;;;258.70;200.30;;;;;;;22.30;55.90;98917.69;234239;1198;140021;-65
2021/09/12 17:07:26;;;;;;;27.20;16.80;;;;;;;22.28;56.13;98917.92;234255;1198;139264;-62
2021/09/12 17:12:29;;;;;;;47.70;23.80;;;;;;;22.24;56.21;98919.75;234231;1198;139480;-63
2021/09/12 17:17:33;;;;;;;32.50;12.00;;;;;;;22.23;56.38;98918.78;234060;1198;139529;-62
2021/09/12 17:22:36;;;;;;;23.10;12.40;;;;;;;22.22;56.59;98925.05;234199;1198;139688;-63
2021/09/12 17:27:40;;;;;;;23.30;10.90;;;;;;;22.19;56.67;98928.23;234388;1198;138681;-62
2021/09/12 17:32:45;;;;;;;12.30;7.40;;;;;;;22.15;56.80;98928.39;234322;1198;138628;-63
2021/09/12 17:37:49;;;;;;;12.90;8.00;;;;;;;22.07;56.99;98927.55;234272;1198;139843;-62
2021/09/12 17:42:53;;;;;;;13.60;7.40;;;;;;;22.01;57.15;98931.52;234066;1198;138506;-64
2021/09/12 17:47:56;;;;;;;10.40;7.20;;;;;;;21.94;57.30;98933.52;233871;1198;138245;-61
2021/09/12 17:52:59;;;;;;;13.70;8.10;;;;;;;21.87;57.51;98932.34;234085;1198;138414;-64
2021/09/12 17:58:02;;;;;;;540.10;467.00;;;;;;;21.79;57.70;98931.67;233968;1197;138349;-63
2021/09/12 18:03:05;;;;;;;22.60;16.70;;;;;;;21.73;57.94;98933.37;234289;1198;139378;-62
2021/09/12 18:08:09;;;;;;;8.60;6.20;;;;;;;21.66;57.97;98930.69;234148;1198;139564;-62
2021/09/12 18:13:12;;;;;;;9.60;6.20;;;;;;;21.60;58.19;98932.52;234113;1198;138971;-63
2021/09/12 18:18:15;;;;;;;11.10;6.70;;;;;;;21.54;58.22;98939.04;233907;1197;139298;-62
2021/09/12 18:23:18;;;;;;;621.00;500.90;;;;;;;21.51;58.47;98943.53;233512;1198;138967;-60
2021/09/12 18:28:21;;;;;;;20.00;15.40;;;;;;;21.49;58.75;98947.36;234239;1198;139184;-63
2021/09/12 18:33:25;;;;;;;16.10;7.60;;;;;;;21.41;58.72;98952.62;234231;1198;139050;-62
2021/09/12 18:38:29;;;;;;;8.30;6.70;;;;;;;21.27;58.85;98951.38;234227;1198;138682;-61
2021/09/12 18:43:32;;;;;;;10.60;6.40;;;;;;;21.14;59.04;98956.04;234263;1198;138908;-62
2021/09/12 18:48:36;;;;;;;8.60;5.90;;;;;;;21.05;59.42;98962.02;234229;1198;139455;-61
2021/09/12 18:53:39;;;;;;;13.50;6.90;;;;;;;21.00;59.68;98958.55;234210;1198;138893;-61
2021/09/12 18:58:43;;;;;;;8.80;6.20;;;;;;;20.99;60.06;98961.15;234228;1198;139513;-61
2021/09/12 19:03:46;;;;;;;12.90;6.80;;;;;;;20.97;60.24;98961.73;233714;1197;139413;-61
2021/09/12 19:08:51;;;;;;;15.30;7.60;;;;;;;20.95;60.31;98967.58;234108;1198;138177;-60
2021/09/12 19:13:59;;;;;;;12.40;8.40;;;;;;;20.90;60.39;98971.31;234122;1198;138904;-62
2021/09/12 19:19:03;;;;;;;12.70;6.50;;;;;;;20.90;60.72;98980.03;233975;1198;139049;-61
2021/09/12 19:24:10;;;;;;;9.20;6.70;;;;;;;20.94;60.84;98980.60;234101;1198;138869;-62
2021/09/12 19:29:15;;;;;;;11.00;6.80;;;;;;;20.97;60.89;98986.84;234074;1198;139506;-61
2021/09/12 19:34:23;;;;;;;11.10;7.40;;;;;;;20.98;61.05;98985.31;234141;1199;138636;-61
2021/09/12 19:39:28;;;;;;;15.30;7.50;;;;;;;20.97;61.11;98990.66;234089;1198;137953;-61
2021/09/12 19:44:31;;;;;;;10.00;7.30;;;;;;;20.94;61.37;98988.61;234131;1198;138451;-61
2021/09/12 19:49:34;;;;;;;14.30;7.80;;;;;;;20.89;61.26;98990.42;234172;1198;138755;-60
2021/09/12 19:54:37;;;;;;;10.30;7.00;;;;;;;20.78;61.31;98993.17;234066;1198;139405;-61
2021/09/12 19:59:40;;;;;;;11.00;6.60;;;;;;;20.71;61.40;98991.20;234044;1198;139100;-63
2021/09/12 20:04:43;;;;;;;9.30;7.10;;;;;;;20.68;61.71;98992.58;234144;1198;139441;-62
2021/09/12 20:09:46;;;;;;;11.20;7.60;;;;;;;20.70;61.84;98992.65;234276;1198;138888;-62
2021/09/12 20:14:50;;;;;;;10.30;7.20;;;;;;;20.66;61.89;98995.61;234145;1198;139080;-60
2021/09/12 20:19:53;;;;;;;12.60;7.40;;;;;;;20.63;62.14;98993.77;233838;1198;138661;-64
2021/09/12 20:24:56;;;;;;;18.20;7.30;;;;;;;20.57;62.24;98994.14;234094;1198;140251;-61
2021/09/12 20:30:03;;;;;;;12.50;7.30;;;;;;;20.56;62.42;98992.95;233822;1198;140393;-62
2021/09/12 20:35:06;;;;;;;14.20;7.90;;;;;;;20.65;62.59;98998.17;234007;1197;139666;-62
2021/09/12 20:40:10;;;;;;;11.90;7.40;;;;;;;20.71;62.65;99000.59;234082;1198;138885;-61
2021/09/12 20:45:13;;;;;;;12.80;7.40;;;;;;;20.72;62.76;98997.09;234016;1198;138642;-60
2021/09/12 20:50:16;;;;;;;12.70;8.50;;;;;;;20.68;62.60;98995.86;234076;1198;140492;-62
2021/09/12 20:55:19;;;;;;;11.40;6.90;;;;;;;20.62;62.69;98998.16;233989;1198;139649;-62
2021/09/12 21:00:22;;;;;;;10.70;7.40;;;;;;;20.57;62.82;98996.98;233943;1197;140181;-60
2021/09/12 21:05:25;;;;;;;13.10;7.90;;;;;;;20.54;63.05;98998.89;234150;1198;139567;-60
2021/09/12 21:10:28;;;;;;;16.30;8.10;;;;;;;20.52;63.07;99002.70;233661;1198;138602;-59
2021/09/12 21:15:32;;;;;;;602.00;471.10;;;;;;;20.48;63.05;98999.59;233895;1198;139130;-59
2021/09/12 21:20:35;;;;;;;18.60;15.40;;;;;;;20.43;63.17;98992.87;233900;1198;139002;-60
2021/09/12 21:25:38;;;;;;;13.20;9.20;;;;;;;20.37;63.28;98995.88;234024;1198;141217;-59
2021/09/12 21:30:49;;;;;;;11.40;8.90;;;;;;;20.32;63.39;98992.35;234064;1198;139565;-59
2021/09/12 21:36:07;;;;;;;13.20;10.60;;;;;;;20.35;63.59;98997.15;234012;1198;139162;-61
2021/09/12 21:41:32;;;;;;;12.60;9.70;;;;;;;20.37;63.61;98998.70;233880;1198;138681;-62
2021/09/12 21:47:05;;;;;;;16.70;10.30;;;;;;;20.35;63.61;99000.73;233473;1197;138880;-62
2021/09/12 21:52:24;;;;;;;13.70;9.50;;;;;;;20.29;63.61;99003.19;234164;1198;138757;-59
2021/09/12 21:57:55;;;;;;;11.80;8.40;;;;;;;20.23;63.60;99001.62;233963;1198;138491;-63
2021/09/12 22:03:06;;;;;;;13.50;8.70;;;;;;;20.20;63.76;99004.58;233272;1197;139481;-64
2021/09/12 22:08:18;;;;;;;;;;;;;;;20.20;63.99;99004.98;232580;1198;139064;-62
2021/09/12 22:13:40;;;;;;;14.80;10.80;;;;;;;20.21;64.14;99004.70;233865;1198;124419;-64
2021/09/12 22:19:23;;;;;;;15.80;11.20;;;;;;;20.21;64.11;99009.67;234061;1198;139608;-62
2021/09/12 22:25:28;;;;;;;;;;;;;;;;;;;;;
2021/09/12 22:30:54;;;;;;;14.50;9.30;;;;;;;20.20;64.15;98999.03;234075;1198;138685;-61
2021/09/12 22:36:04;;;;;;;13.30;9.60;;;;;;;20.22;64.14;98997.36;232814;1198;139486;-63
2021/09/12 22:41:21;;;;;;;13.80;9.80;;;;;;;20.25;64.26;98998.89;233609;1198;139194;-61
2021/09/12 22:46:48;;;;;;;14.60;9.80;;;;;;;20.27;64.22;98997.20;233705;1200;138946;-64
2021/09/12 22:52:13;;;;;;;12.60;10.10;;;;;;;20.26;64.22;98994.03;233483;1200;138886;-62
2021/09/12 22:57:23;;;;;;;13.10;10.20;;;;;;;20.20;64.08;98994.30;232504;1201;138671;-65
2021/09/12 23:02:36;;;;;;;11.50;9.10;;;;;;;20.13;64.07;99000.48;233337;1198;139853;-64
2021/09/12 23:08:22;;;;;;;12.60;8.80;;;;;;;20.09;64.13;99001.38;232186;1201;139417;-63